sensor_id;sensor_type;location;lat;lon;timestamp;temperature;humidity
10046;DHT22;5063;50.878;4.742;2022-11-21T00:00:28;7.80;99.90
10046;DHT22;5063;50.878;4.742;2022-11-21T00:02:57;7.80;99.90
10046;DHT22;5063;50.878;4.742;2022-11-21T00:05:24;7.70;99.90
10046;DHT22;5063;50.878;4.742;2022-11-21T00:07:50;7.70;99.90
10046;DHT22;5063;50.878;4.742;2022-11-21T00:10:16;7.70;99.90
10046;DHT22;5063;50.878;4.742;2022-11-21T00:12:41;7.70;99.90
10046;DHT22;5063;50.878;4.742;2022-11-21T00:15:07;7.70;99.90
10046;DHT22;5063;50.878;4.742;2022-11-21T00:17:33;7.70;99.90
10046;DHT22;5063;50.878;4.742;2022-11-21T00:19:59;7.90;99.90
10046;DHT22;5063;50.878;4.742;2022-11-21T00:22:24;7.60;99.90
10046;DHT22;5063;50.878;4.742;2022-11-21T00:24:50;7.60;99.90
10046;DHT22;5063;50.878;4.742;2022-11-21T00:27:16;7.70;99.90
10046;DHT22;5063;50.878;4.742;2022-11-21T00:29:41;7.70;99.90
10046;DHT22;5063;50.878;4.742;2022-11-21T00:32:07;7.70;99.90
10046;DHT22;5063;50.878;4.742;2022-11-21T00:34:33;7.60;99.90
10046;DHT22;5063;50.878;4.742;2022-11-21T00:36:58;7.50;99.90
10046;DHT22;5063;50.878;4.742;2022-11-21T00:39:24;7.50;99.90
10046;DHT22;5063;50.878;4.742;2022-11-21T00:41:50;7.50;99.90
10046;DHT22;5063;50.878;4.742;2022-11-21T00:44:15;7.30;99.90
10046;DHT22;5063;50.878;4.742;2022-11-21T00:46:42;7.20;99.90
10046;DHT22;5063;50.878;4.742;2022-11-21T00:49:08;7.20;99.90
10046;DHT22;5063;50.878;4.742;2022-11-21T00:51:33;7.20;99.90
10046;DHT22;5063;50.878;4.742;2022-11-21T00:53:59;7.10;99.90
10046;DHT22;5063;50.878;4.742;2022-11-21T00:56:25;7.30;99.90
10046;DHT22;5063;50.878;4.742;2022-11-21T00:58:50;7.00;99.90
10046;DHT22;5063;50.878;4.742;2022-11-21T01:01:16;7.00;99.90
10046;DHT22;5063;50.878;4.742;2022-11-21T01:03:42;7.20;99.90
10046;DHT22;5063;50.878;4.742;2022-11-21T01:06:10;7.10;99.90
10046;DHT22;5063;50.878;4.742;2022-11-21T01:08:38;7.20;99.90
10046;DHT22;5063;50.878;4.742;2022-11-21T01:11:15;7.10;99.90
10046;DHT22;5063;50.878;4.742;2022-11-21T01:13:42;7.10;99.90
10046;DHT22;5063;50.878;4.742;2022-11-21T01:16:13;7.10;99.90
10046;DHT22;5063;50.878;4.742;2022-11-21T01:18:39;7.10;99.90
10046;DHT22;5063;50.878;4.742;2022-11-21T01:21:10;7.00;99.90
10046;DHT22;5063;50.878;4.742;2022-11-21T01:23:36;6.90;99.90
10046;DHT22;5063;50.878;4.742;2022-11-21T01:26:04;7.10;99.90
10046;DHT22;5063;50.878;4.742;2022-11-21T01:28:30;7.00;99.90
10046;DHT22;5063;50.878;4.742;2022-11-21T01:31:09;6.80;99.90
10046;DHT22;5063;50.878;4.742;2022-11-21T01:33:36;6.80;99.90
10046;DHT22;5063;50.878;4.742;2022-11-21T01:36:09;6.70;99.90
10046;DHT22;5063;50.878;4.742;2022-11-21T01:38:36;6.70;99.90
10046;DHT22;5063;50.878;4.742;2022-11-21T01:41:02;6.70;99.90
10046;DHT22;5063;50.878;4.742;2022-11-21T01:43:28;6.60;99.90
10046;DHT22;5063;50.878;4.742;2022-11-21T01:45:57;6.60;99.90
10046;DHT22;5063;50.878;4.742;2022-11-21T01:48:33;6.70;99.90
10046;DHT22;5063;50.878;4.742;2022-11-21T01:51:16;6.60;99.90
10046;DHT22;5063;50.878;4.742;2022-11-21T01:53:50;6.60;99.90
10046;DHT22;5063;50.878;4.742;2022-11-21T01:56:17;6.70;99.90
10046;DHT22;5063;50.878;4.742;2022-11-21T01:58:45;6.80;99.90
10046;DHT22;5063;50.878;4.742;2022-11-21T02:01:11;7.00;99.90
10046;DHT22;5063;50.878;4.742;2022-11-21T02:03:37;6.80;99.90
10046;DHT22;5063;50.878;4.742;2022-11-21T02:06:06;6.90;99.90
10046;DHT22;5063;50.878;4.742;2022-11-21T02:08:33;6.80;99.90
10046;DHT22;5063;50.878;4.742;2022-11-21T02:11:06;6.40;99.90
10046;DHT22;5063;50.878;4.742;2022-11-21T02:13:34;7.00;99.90
10046;DHT22;5063;50.878;4.742;2022-11-21T02:16:00;7.00;99.90
10046;DHT22;5063;50.878;4.742;2022-11-21T02:18:26;7.00;99.90
10046;DHT22;5063;50.878;4.742;2022-11-21T02:20:59;7.00;99.90
10046;DHT22;5063;50.878;4.742;2022-11-21T02:23:52;7.10;99.90
10046;DHT22;5063;50.878;4.742;2022-11-21T02:26:20;7.00;99.90
10046;DHT22;5063;50.878;4.742;2022-11-21T02:28:46;7.00;99.90
10046;DHT22;5063;50.878;4.742;2022-11-21T02:31:11;7.30;99.90
10046;DHT22;5063;50.878;4.742;2022-11-21T02:33:37;7.10;99.90
10046;DHT22;5063;50.878;4.742;2022-11-21T02:36:03;7.20;99.90
10046;DHT22;5063;50.878;4.742;2022-11-21T02:38:34;7.20;99.90
10046;DHT22;5063;50.878;4.742;2022-11-21T02:41:19;7.30;99.90
10046;DHT22;5063;50.878;4.742;2022-11-21T02:44:06;7.50;99.90
10046;DHT22;5063;50.878;4.742;2022-11-21T02:46:34;7.40;99.90
10046;DHT22;5063;50.878;4.742;2022-11-21T02:49:05;7.50;99.90
10046;DHT22;5063;50.878;4.742;2022-11-21T02:51:32;7.50;99.90
10046;DHT22;5063;50.878;4.742;2022-11-21T02:53:57;7.60;99.90
10046;DHT22;5063;50.878;4.742;2022-11-21T02:56:23;7.70;99.90
10046;DHT22;5063;50.878;4.742;2022-11-21T02:58:49;7.70;99.90
10046;DHT22;5063;50.878;4.742;2022-11-21T03:01:15;7.70;99.90
10046;DHT22;5063;50.878;4.742;2022-11-21T03:03:40;7.70;99.90
10046;DHT22;5063;50.878;4.742;2022-11-21T03:06:06;7.80;99.90
10046;DHT22;5063;50.878;4.742;2022-11-21T03:08:32;7.80;99.90
10046;DHT22;5063;50.878;4.742;2022-11-21T03:10:57;7.80;99.90
10046;DHT22;5063;50.878;4.742;2022-11-21T03:13:23;7.90;99.90
10046;DHT22;5063;50.878;4.742;2022-11-21T03:15:49;8.00;99.90
10046;DHT22;5063;50.878;4.742;2022-11-21T03:18:14;8.00;99.90
10046;DHT22;5063;50.878;4.742;2022-11-21T03:20:40;8.00;99.90
10046;DHT22;5063;50.878;4.742;2022-11-21T03:23:06;8.00;99.90
10046;DHT22;5063;50.878;4.742;2022-11-21T03:25:32;7.90;99.90
10046;DHT22;5063;50.878;4.742;2022-11-21T03:27:57;8.00;99.90
10046;DHT22;5063;50.878;4.742;2022-11-21T03:30:24;8.10;99.90
10046;DHT22;5063;50.878;4.742;2022-11-21T03:32:54;8.00;99.90
10046;DHT22;5063;50.878;4.742;2022-11-21T03:35:20;8.00;99.90
10046;DHT22;5063;50.878;4.742;2022-11-21T03:37:47;8.00;99.90
10046;DHT22;5063;50.878;4.742;2022-11-21T03:40:13;8.00;99.90
10046;DHT22;5063;50.878;4.742;2022-11-21T03:42:38;8.00;99.90
10046;DHT22;5063;50.878;4.742;2022-11-21T03:45:04;8.00;99.90
10046;DHT22;5063;50.878;4.742;2022-11-21T03:47:30;8.00;99.90
10046;DHT22;5063;50.878;4.742;2022-11-21T03:49:56;8.00;99.90
10046;DHT22;5063;50.878;4.742;2022-11-21T03:52:22;8.00;99.90
10046;DHT22;5063;50.878;4.742;2022-11-21T03:54:47;8.00;99.90
10046;DHT22;5063;50.878;4.742;2022-11-21T03:57:13;7.90;99.90
10046;DHT22;5063;50.878;4.742;2022-11-21T03:59:39;7.90;99.90
10046;DHT22;5063;50.878;4.742;2022-11-21T04:02:05;7.80;99.90
10046;DHT22;5063;50.878;4.742;2022-11-21T04:04:30;7.80;99.90
10046;DHT22;5063;50.878;4.742;2022-11-21T04:06:56;7.70;99.90
10046;DHT22;5063;50.878;4.742;2022-11-21T04:09:21;7.70;99.90
10046;DHT22;5063;50.878;4.742;2022-11-21T04:11:47;7.70;99.90
10046;DHT22;5063;50.878;4.742;2022-11-21T04:14:13;7.60;99.90
10046;DHT22;5063;50.878;4.742;2022-11-21T04:16:39;7.60;99.90
10046;DHT22;5063;50.878;4.742;2022-11-21T04:19:04;7.60;99.90
10046;DHT22;5063;50.878;4.742;2022-11-21T04:21:30;7.50;99.90
10046;DHT22;5063;50.878;4.742;2022-11-21T04:23:56;7.50;99.90
10046;DHT22;5063;50.878;4.742;2022-11-21T04:26:21;7.50;99.90
10046;DHT22;5063;50.878;4.742;2022-11-21T04:28:47;7.50;99.90
10046;DHT22;5063;50.878;4.742;2022-11-21T04:31:13;7.50;99.90
10046;DHT22;5063;50.878;4.742;2022-11-21T04:33:38;7.50;99.90
10046;DHT22;5063;50.878;4.742;2022-11-21T04:36:06;7.50;99.90
10046;DHT22;5063;50.878;4.742;2022-11-21T04:38:31;7.50;99.90
10046;DHT22;5063;50.878;4.742;2022-11-21T04:40:57;7.40;99.90
10046;DHT22;5063;50.878;4.742;2022-11-21T04:43:23;7.30;99.90
10046;DHT22;5063;50.878;4.742;2022-11-21T04:45:49;7.30;99.90
10046;DHT22;5063;50.878;4.742;2022-11-21T04:48:14;7.40;99.90
10046;DHT22;5063;50.878;4.742;2022-11-21T04:50:40;7.30;99.90
10046;DHT22;5063;50.878;4.742;2022-11-21T04:53:06;7.40;99.90
10046;DHT22;5063;50.878;4.742;2022-11-21T04:55:32;7.40;99.90
10046;DHT22;5063;50.878;4.742;2022-11-21T04:57:58;7.40;99.90
10046;DHT22;5063;50.878;4.742;2022-11-21T05:00:24;7.40;99.90
10046;DHT22;5063;50.878;4.742;2022-11-21T05:02:50;6.90;99.90
10046;DHT22;5063;50.878;4.742;2022-11-21T05:05:16;7.40;99.90
10046;DHT22;5063;50.878;4.742;2022-11-21T05:07:42;7.40;99.90
10046;DHT22;5063;50.878;4.742;2022-11-21T05:10:08;7.40;99.90
10046;DHT22;5063;50.878;4.742;2022-11-21T05:12:34;7.40;99.90
10046;DHT22;5063;50.878;4.742;2022-11-21T05:15:26;7.50;99.90
10046;DHT22;5063;50.878;4.742;2022-11-21T05:17:52;7.50;99.90
10046;DHT22;5063;50.878;4.742;2022-11-21T05:20:17;7.60;99.90
10046;DHT22;5063;50.878;4.742;2022-11-21T05:22:43;7.70;99.90
10046;DHT22;5063;50.878;4.742;2022-11-21T05:25:14;7.50;99.90
10046;DHT22;5063;50.878;4.742;2022-11-21T05:27:39;7.40;99.90
10046;DHT22;5063;50.878;4.742;2022-11-21T05:30:06;7.60;99.90
10046;DHT22;5063;50.878;4.742;2022-11-21T05:32:32;7.70;99.90
10046;DHT22;5063;50.878;4.742;2022-11-21T05:34:57;7.50;99.90
10046;DHT22;5063;50.878;4.742;2022-11-21T05:37:23;7.60;99.90
10046;DHT22;5063;50.878;4.742;2022-11-21T05:39:48;7.60;99.90
10046;DHT22;5063;50.878;4.742;2022-11-21T05:42:14;7.50;99.90
10046;DHT22;5063;50.878;4.742;2022-11-21T05:44:40;7.50;99.90
10046;DHT22;5063;50.878;4.742;2022-11-21T05:47:06;7.50;99.90
10046;DHT22;5063;50.878;4.742;2022-11-21T05:49:31;7.40;99.90
10046;DHT22;5063;50.878;4.742;2022-11-21T05:51:57;7.60;99.90
10046;DHT22;5063;50.878;4.742;2022-11-21T05:54:22;7.50;99.90
10046;DHT22;5063;50.878;4.742;2022-11-21T05:56:48;7.60;99.90
10046;DHT22;5063;50.878;4.742;2022-11-21T05:59:14;7.50;99.90
10046;DHT22;5063;50.878;4.742;2022-11-21T06:01:40;7.50;99.90
10046;DHT22;5063;50.878;4.742;2022-11-21T06:04:24;7.40;99.90
10046;DHT22;5063;50.878;4.742;2022-11-21T06:06:50;7.30;99.90
10046;DHT22;5063;50.878;4.742;2022-11-21T06:09:15;7.30;99.90
10046;DHT22;5063;50.878;4.742;2022-11-21T06:11:41;7.40;99.90
10046;DHT22;5063;50.878;4.742;2022-11-21T06:14:07;7.20;99.90
10046;DHT22;5063;50.878;4.742;2022-11-21T06:16:32;7.40;99.90
10046;DHT22;5063;50.878;4.742;2022-11-21T06:18:58;7.30;99.90
10046;DHT22;5063;50.878;4.742;2022-11-21T06:21:26;7.20;99.90
10046;DHT22;5063;50.878;4.742;2022-11-21T06:23:54;7.20;99.90
10046;DHT22;5063;50.878;4.742;2022-11-21T06:26:22;7.10;99.90
10046;DHT22;5063;50.878;4.742;2022-11-21T06:28:48;7.10;99.90
10046;DHT22;5063;50.878;4.742;2022-11-21T06:31:24;7.10;99.90
10046;DHT22;5063;50.878;4.742;2022-11-21T06:33:52;7.00;99.90
10046;DHT22;5063;50.878;4.742;2022-11-21T06:36:18;7.20;99.90
10046;DHT22;5063;50.878;4.742;2022-11-21T06:38:45;6.70;99.90
10046;DHT22;5063;50.878;4.742;2022-11-21T06:41:12;6.60;99.90
10046;DHT22;5063;50.878;4.742;2022-11-21T06:43:39;6.50;99.90
10046;DHT22;5063;50.878;4.742;2022-11-21T06:46:05;6.30;99.90
10046;DHT22;5063;50.878;4.742;2022-11-21T06:48:32;6.20;99.90
10046;DHT22;5063;50.878;4.742;2022-11-21T06:51:06;6.30;99.90
10046;DHT22;5063;50.878;4.742;2022-11-21T06:53:33;6.20;99.90
10046;DHT22;5063;50.878;4.742;2022-11-21T06:56:00;6.10;99.90
10046;DHT22;5063;50.878;4.742;2022-11-21T06:58:26;6.10;99.90
10046;DHT22;5063;50.878;4.742;2022-11-21T07:00:52;5.60;99.90
10046;DHT22;5063;50.878;4.742;2022-11-21T07:03:18;5.90;99.90
10046;DHT22;5063;50.878;4.742;2022-11-21T07:05:44;5.80;99.90
10046;DHT22;5063;50.878;4.742;2022-11-21T07:08:10;5.80;99.90
10046;DHT22;5063;50.878;4.742;2022-11-21T07:10:35;5.70;99.90
10046;DHT22;5063;50.878;4.742;2022-11-21T07:13:01;5.80;99.90
10046;DHT22;5063;50.878;4.742;2022-11-21T07:15:46;5.70;99.90
10046;DHT22;5063;50.878;4.742;2022-11-21T07:18:12;5.60;99.90
10046;DHT22;5063;50.878;4.742;2022-11-21T07:20:39;5.20;99.90
10046;DHT22;5063;50.878;4.742;2022-11-21T07:23:05;5.30;99.90
10046;DHT22;5063;50.878;4.742;2022-11-21T07:25:31;5.70;99.90
10046;DHT22;5063;50.878;4.742;2022-11-21T07:28:01;5.70;99.90
10046;DHT22;5063;50.878;4.742;2022-11-21T07:30:27;5.60;99.90
10046;DHT22;5063;50.878;4.742;2022-11-21T07:32:58;5.60;99.90
10046;DHT22;5063;50.878;4.742;2022-11-21T07:35:24;5.60;99.90
10046;DHT22;5063;50.878;4.742;2022-11-21T07:37:50;5.60;99.90
10046;DHT22;5063;50.878;4.742;2022-11-21T07:40:17;5.70;99.90
10046;DHT22;5063;50.878;4.742;2022-11-21T07:42:43;5.40;99.90
10046;DHT22;5063;50.878;4.742;2022-11-21T07:45:09;5.70;99.90
10046;DHT22;5063;50.878;4.742;2022-11-21T07:47:35;5.70;99.90
10046;DHT22;5063;50.878;4.742;2022-11-21T07:50:01;5.30;99.90
10046;DHT22;5063;50.878;4.742;2022-11-21T07:52:27;5.80;99.90
10046;DHT22;5063;50.878;4.742;2022-11-21T07:54:55;5.70;99.90
10046;DHT22;5063;50.878;4.742;2022-11-21T07:57:21;5.70;99.90
10046;DHT22;5063;50.878;4.742;2022-11-21T07:59:47;5.90;99.90
10046;DHT22;5063;50.878;4.742;2022-11-21T08:02:20;5.80;99.90
10046;DHT22;5063;50.878;4.742;2022-11-21T08:04:47;5.70;99.90
10046;DHT22;5063;50.878;4.742;2022-11-21T08:07:14;5.80;99.90
10046;DHT22;5063;50.878;4.742;2022-11-21T08:09:40;5.90;99.90
10046;DHT22;5063;50.878;4.742;2022-11-21T08:12:06;6.10;99.90
10046;DHT22;5063;50.878;4.742;2022-11-21T08:14:32;6.10;99.90
10046;DHT22;5063;50.878;4.742;2022-11-21T08:16:58;6.10;99.90
10046;DHT22;5063;50.878;4.742;2022-11-21T08:19:24;6.10;99.90
10046;DHT22;5063;50.878;4.742;2022-11-21T08:21:50;6.20;99.90
10046;DHT22;5063;50.878;4.742;2022-11-21T08:24:16;6.20;99.90
10046;DHT22;5063;50.878;4.742;2022-11-21T08:26:43;6.20;99.90
10046;DHT22;5063;50.878;4.742;2022-11-21T08:29:09;6.20;99.90
10046;DHT22;5063;50.878;4.742;2022-11-21T08:31:36;6.20;99.90
10046;DHT22;5063;50.878;4.742;2022-11-21T08:34:02;6.20;99.90
10046;DHT22;5063;50.878;4.742;2022-11-21T08:36:28;6.30;99.90
10046;DHT22;5063;50.878;4.742;2022-11-21T08:38:53;6.20;99.90
10046;DHT22;5063;50.878;4.742;2022-11-21T08:41:19;6.30;99.90
10046;DHT22;5063;50.878;4.742;2022-11-21T08:44:04;6.60;99.90
10046;DHT22;5063;50.878;4.742;2022-11-21T08:46:31;6.30;99.90
10046;DHT22;5063;50.878;4.742;2022-11-21T08:48:58;6.30;99.90
10046;DHT22;5063;50.878;4.742;2022-11-21T08:51:24;6.40;99.90
10046;DHT22;5063;50.878;4.742;2022-11-21T08:53:50;6.40;99.90
10046;DHT22;5063;50.878;4.742;2022-11-21T08:56:18;6.50;99.90
10046;DHT22;5063;50.878;4.742;2022-11-21T08:58:44;6.60;99.90
10046;DHT22;5063;50.878;4.742;2022-11-21T09:01:09;6.60;99.90
10046;DHT22;5063;50.878;4.742;2022-11-21T09:03:35;6.80;99.90
10046;DHT22;5063;50.878;4.742;2022-11-21T09:06:01;6.70;99.90
10046;DHT22;5063;50.878;4.742;2022-11-21T09:08:28;7.00;99.90
10046;DHT22;5063;50.878;4.742;2022-11-21T09:10:54;7.00;99.90
10046;DHT22;5063;50.878;4.742;2022-11-21T09:13:20;7.10;99.90
10046;DHT22;5063;50.878;4.742;2022-11-21T09:15:46;7.30;99.90
10046;DHT22;5063;50.878;4.742;2022-11-21T09:18:31;7.50;99.90
10046;DHT22;5063;50.878;4.742;2022-11-21T09:20:56;7.50;99.90
10046;DHT22;5063;50.878;4.742;2022-11-21T09:23:22;7.50;99.90
10046;DHT22;5063;50.878;4.742;2022-11-21T09:25:48;7.60;99.90
10046;DHT22;5063;50.878;4.742;2022-11-21T09:28:14;7.70;99.90
10046;DHT22;5063;50.878;4.742;2022-11-21T09:30:40;7.80;99.90
10046;DHT22;5063;50.878;4.742;2022-11-21T09:33:10;7.70;99.90
10046;DHT22;5063;50.878;4.742;2022-11-21T09:35:36;7.80;99.90
10046;DHT22;5063;50.878;4.742;2022-11-21T09:38:02;7.90;99.90
10046;DHT22;5063;50.878;4.742;2022-11-21T09:40:29;8.10;99.90
10046;DHT22;5063;50.878;4.742;2022-11-21T09:46:02;8.20;99.90
10046;DHT22;5063;50.878;4.742;2022-11-21T09:48:42;8.10;99.90
10046;DHT22;5063;50.878;4.742;2022-11-21T09:51:14;8.20;99.90
10046;DHT22;5063;50.878;4.742;2022-11-21T09:54:01;8.40;99.90
10046;DHT22;5063;50.878;4.742;2022-11-21T09:56:31;8.50;99.90
10046;DHT22;5063;50.878;4.742;2022-11-21T09:59:11;8.60;99.90
10046;DHT22;5063;50.878;4.742;2022-11-21T10:01:40;8.70;99.90
10046;DHT22;5063;50.878;4.742;2022-11-21T10:04:06;8.90;99.90
10046;DHT22;5063;50.878;4.742;2022-11-21T10:07:00;8.80;99.90
10046;DHT22;5063;50.878;4.742;2022-11-21T10:15:33;8.80;99.90
10046;DHT22;5063;50.878;4.742;2022-11-21T10:26:53;9.10;99.90
10046;DHT22;5063;50.878;4.742;2022-11-21T10:29:36;9.10;99.90
10046;DHT22;5063;50.878;4.742;2022-11-21T10:32:25;9.40;99.90
10046;DHT22;5063;50.878;4.742;2022-11-21T10:34:54;9.50;99.90
10046;DHT22;5063;50.878;4.742;2022-11-21T10:37:37;9.60;99.90
10046;DHT22;5063;50.878;4.742;2022-11-21T10:42:43;10.00;99.90
10046;DHT22;5063;50.878;4.742;2022-11-21T10:45:13;10.30;99.90
10046;DHT22;5063;50.878;4.742;2022-11-21T10:47:42;10.50;99.90
10046;DHT22;5063;50.878;4.742;2022-11-21T10:55:11;10.30;99.90
10046;DHT22;5063;50.878;4.742;2022-11-21T10:57:44;10.20;99.90
10046;DHT22;5063;50.878;4.742;2022-11-21T11:02:40;10.00;99.90
10046;DHT22;5063;50.878;4.742;2022-11-21T11:05:19;10.10;99.90
10046;DHT22;5063;50.878;4.742;2022-11-21T11:10:37;10.00;99.90
10046;DHT22;5063;50.878;4.742;2022-11-21T11:13:14;10.00;99.90
10046;DHT22;5063;50.878;4.742;2022-11-21T11:18:33;10.10;99.90
10046;DHT22;5063;50.878;4.742;2022-11-21T11:21:23;10.10;99.90
10046;DHT22;5063;50.878;4.742;2022-11-21T11:23:51;10.00;99.90
10046;DHT22;5063;50.878;4.742;2022-11-21T11:28:47;10.10;99.90
10046;DHT22;5063;50.878;4.742;2022-11-21T11:31:13;10.10;99.90
10046;DHT22;5063;50.878;4.742;2022-11-21T11:38:55;10.10;99.90
10046;DHT22;5063;50.878;4.742;2022-11-21T11:41:26;10.30;99.90
10046;DHT22;5063;50.878;4.742;2022-11-21T11:44:13;10.50;99.90
10046;DHT22;5063;50.878;4.742;2022-11-21T11:47:10;10.50;99.90
10046;DHT22;5063;50.878;4.742;2022-11-21T11:50:04;10.30;99.90
10046;DHT22;5063;50.878;4.742;2022-11-21T11:52:51;10.30;99.90
10046;DHT22;5063;50.878;4.742;2022-11-21T11:55:22;10.30;99.90
10046;DHT22;5063;50.878;4.742;2022-11-21T11:57:52;10.20;99.90
10046;DHT22;5063;50.878;4.742;2022-11-21T12:00:39;10.20;99.90
10046;DHT22;5063;50.878;4.742;2022-11-21T12:05:52;10.30;99.90
10046;DHT22;5063;50.878;4.742;2022-11-21T12:08:28;10.10;99.90
10046;DHT22;5063;50.878;4.742;2022-11-21T12:14:10;10.30;99.90
10046;DHT22;5063;50.878;4.742;2022-11-21T12:16:59;10.40;99.90
10046;DHT22;5063;50.878;4.742;2022-11-21T12:19:25;10.50;99.90
10046;DHT22;5063;50.878;4.742;2022-11-21T12:21:51;10.50;99.90
10046;DHT22;5063;50.878;4.742;2022-11-21T12:24:17;10.70;99.90
10046;DHT22;5063;50.878;4.742;2022-11-21T12:27:04;10.60;99.90
10046;DHT22;5063;50.878;4.742;2022-11-21T12:40:42;11.00;99.90
10046;DHT22;5063;50.878;4.742;2022-11-21T12:57:02;10.70;99.90
10046;DHT22;5063;50.878;4.742;2022-11-21T12:59:30;10.70;99.90
10046;DHT22;5063;50.878;4.742;2022-11-21T13:05:12;10.60;99.90
10046;DHT22;5063;50.878;4.742;2022-11-21T13:07:41;10.40;99.90
10046;DHT22;5063;50.878;4.742;2022-11-21T13:10:13;10.40;99.90
10046;DHT22;5063;50.878;4.742;2022-11-21T13:15:33;10.60;99.90
10046;DHT22;5063;50.878;4.742;2022-11-21T13:18:22;10.90;99.90
10046;DHT22;5063;50.878;4.742;2022-11-21T13:20:51;10.80;99.90
10046;DHT22;5063;50.878;4.742;2022-11-21T13:23:40;10.80;99.90
10046;DHT22;5063;50.878;4.742;2022-11-21T13:29:12;11.00;99.90
10046;DHT22;5063;50.878;4.742;2022-11-21T13:31:38;11.10;99.90
10046;DHT22;5063;50.878;4.742;2022-11-21T13:36:53;11.00;99.90
10046;DHT22;5063;50.878;4.742;2022-11-21T13:42:10;10.90;99.90
10046;DHT22;5063;50.878;4.742;2022-11-21T13:44:54;11.00;99.90
10046;DHT22;5063;50.878;4.742;2022-11-21T13:47:33;11.00;99.90
10046;DHT22;5063;50.878;4.742;2022-11-21T14:11:45;10.60;99.90
10046;DHT22;5063;50.878;4.742;2022-11-21T14:19:32;10.30;99.90
10046;DHT22;5063;50.878;4.742;2022-11-21T14:21:59;10.30;99.90
10046;DHT22;5063;50.878;4.742;2022-11-21T14:24:26;10.20;99.90
10046;DHT22;5063;50.878;4.742;2022-11-21T14:26:52;10.40;99.90
10046;DHT22;5063;50.878;4.742;2022-11-21T14:29:26;10.30;99.90
10046;DHT22;5063;50.878;4.742;2022-11-21T14:31:52;10.40;99.90
10046;DHT22;5063;50.878;4.742;2022-11-21T14:34:29;10.40;99.90
10046;DHT22;5063;50.878;4.742;2022-11-21T14:36:58;10.40;99.90
10046;DHT22;5063;50.878;4.742;2022-11-21T14:39:26;10.40;99.90
10046;DHT22;5063;50.878;4.742;2022-11-21T14:42:04;10.40;99.90
10046;DHT22;5063;50.878;4.742;2022-11-21T14:44:30;10.20;99.90
10046;DHT22;5063;50.878;4.742;2022-11-21T14:47:16;10.20;99.90
10046;DHT22;5063;50.878;4.742;2022-11-21T14:49:52;10.20;99.90
10046;DHT22;5063;50.878;4.742;2022-11-21T14:52:29;10.20;99.90
10046;DHT22;5063;50.878;4.742;2022-11-21T14:54:58;10.30;99.90
10046;DHT22;5063;50.878;4.742;2022-11-21T14:57:40;10.20;99.90
10046;DHT22;5063;50.878;4.742;2022-11-21T15:00:07;10.20;99.90
10046;DHT22;5063;50.878;4.742;2022-11-21T15:02:35;10.10;99.90
10046;DHT22;5063;50.878;4.742;2022-11-21T15:05:04;10.10;99.90
10046;DHT22;5063;50.878;4.742;2022-11-21T15:07:39;10.10;99.90
10046;DHT22;5063;50.878;4.742;2022-11-21T15:10:12;10.10;99.90
10046;DHT22;5063;50.878;4.742;2022-11-21T15:18:06;10.00;99.90
10046;DHT22;5063;50.878;4.742;2022-11-21T15:20:36;9.90;99.90
10046;DHT22;5063;50.878;4.742;2022-11-21T15:23:02;9.90;99.90
10046;DHT22;5063;50.878;4.742;2022-11-21T15:25:50;9.90;99.90
10046;DHT22;5063;50.878;4.742;2022-11-21T15:28:17;10.00;99.90
10046;DHT22;5063;50.878;4.742;2022-11-21T15:30:43;9.90;99.90
10046;DHT22;5063;50.878;4.742;2022-11-21T15:35:44;9.70;99.90
10046;DHT22;5063;50.878;4.742;2022-11-21T15:38:32;9.70;99.90
10046;DHT22;5063;50.878;4.742;2022-11-21T15:41:22;9.70;99.90
10046;DHT22;5063;50.878;4.742;2022-11-21T15:43:51;9.60;99.90
10046;DHT22;5063;50.878;4.742;2022-11-21T15:46:32;9.60;99.90
10046;DHT22;5063;50.878;4.742;2022-11-21T15:48:59;9.60;99.90
10046;DHT22;5063;50.878;4.742;2022-11-21T15:51:37;9.60;99.90
10046;DHT22;5063;50.878;4.742;2022-11-21T15:54:04;9.70;99.90
10046;DHT22;5063;50.878;4.742;2022-11-21T15:56:31;9.70;99.90
10046;DHT22;5063;50.878;4.742;2022-11-21T15:58:56;9.70;99.90
10046;DHT22;5063;50.878;4.742;2022-11-21T16:01:24;9.60;99.90
10046;DHT22;5063;50.878;4.742;2022-11-21T16:03:52;9.70;99.90
10046;DHT22;5063;50.878;4.742;2022-11-21T16:06:19;9.80;99.90
10046;DHT22;5063;50.878;4.742;2022-11-21T16:08:45;9.70;99.90
10046;DHT22;5063;50.878;4.742;2022-11-21T16:13:51;9.60;99.90
10046;DHT22;5063;50.878;4.742;2022-11-21T16:16:18;9.60;99.90
10046;DHT22;5063;50.878;4.742;2022-11-21T16:18:44;9.60;99.90
10046;DHT22;5063;50.878;4.742;2022-11-21T16:21:10;9.60;99.90
10046;DHT22;5063;50.878;4.742;2022-11-21T16:23:37;9.70;99.90
10046;DHT22;5063;50.878;4.742;2022-11-21T16:26:04;9.60;99.90
10046;DHT22;5063;50.878;4.742;2022-11-21T16:28:30;9.70;99.90
10046;DHT22;5063;50.878;4.742;2022-11-21T16:33:33;9.70;99.90
10046;DHT22;5063;50.878;4.742;2022-11-21T16:36:00;9.70;99.90
10046;DHT22;5063;50.878;4.742;2022-11-21T16:38:27;9.70;99.90
10046;DHT22;5063;50.878;4.742;2022-11-21T16:40:58;9.70;99.90
10046;DHT22;5063;50.878;4.742;2022-11-21T16:43:25;9.80;99.90
10046;DHT22;5063;50.878;4.742;2022-11-21T16:45:51;9.80;99.90
10046;DHT22;5063;50.878;4.742;2022-11-21T16:48:18;9.80;99.90
10046;DHT22;5063;50.878;4.742;2022-11-21T16:50:45;9.80;99.90
10046;DHT22;5063;50.878;4.742;2022-11-21T16:53:11;9.80;99.90
10046;DHT22;5063;50.878;4.742;2022-11-21T16:55:37;9.90;99.90
10046;DHT22;5063;50.878;4.742;2022-11-21T16:58:03;9.70;99.90
10046;DHT22;5063;50.878;4.742;2022-11-21T17:00:29;9.70;99.90
10046;DHT22;5063;50.878;4.742;2022-11-21T17:02:55;9.60;99.90
10046;DHT22;5063;50.878;4.742;2022-11-21T17:05:21;9.60;99.90
10046;DHT22;5063;50.878;4.742;2022-11-21T17:07:47;9.50;99.90
10046;DHT22;5063;50.878;4.742;2022-11-21T17:10:13;9.50;99.90
10046;DHT22;5063;50.878;4.742;2022-11-21T17:12:41;9.50;99.90
10046;DHT22;5063;50.878;4.742;2022-11-21T17:15:09;9.40;99.90
10046;DHT22;5063;50.878;4.742;2022-11-21T17:17:35;9.40;99.90
10046;DHT22;5063;50.878;4.742;2022-11-21T17:20:02;9.30;99.90
10046;DHT22;5063;50.878;4.742;2022-11-21T17:22:28;9.40;99.90
10046;DHT22;5063;50.878;4.742;2022-11-21T17:24:53;9.30;99.90
10046;DHT22;5063;50.878;4.742;2022-11-21T17:27:20;9.30;99.90
10046;DHT22;5063;50.878;4.742;2022-11-21T17:29:46;9.30;99.90
10046;DHT22;5063;50.878;4.742;2022-11-21T17:32:12;9.20;99.90
10046;DHT22;5063;50.878;4.742;2022-11-21T17:34:37;9.20;99.90
10046;DHT22;5063;50.878;4.742;2022-11-21T17:37:03;9.10;99.90
10046;DHT22;5063;50.878;4.742;2022-11-21T17:39:29;9.00;99.90
10046;DHT22;5063;50.878;4.742;2022-11-21T17:41:55;9.00;99.90
10046;DHT22;5063;50.878;4.742;2022-11-21T17:44:23;9.00;99.90
10046;DHT22;5063;50.878;4.742;2022-11-21T17:46:49;8.90;99.90
10046;DHT22;5063;50.878;4.742;2022-11-21T17:49:15;8.90;99.90
10046;DHT22;5063;50.878;4.742;2022-11-21T17:51:41;8.80;99.90
10046;DHT22;5063;50.878;4.742;2022-11-21T17:54:07;8.80;99.90
10046;DHT22;5063;50.878;4.742;2022-11-21T17:56:35;8.90;99.90
10046;DHT22;5063;50.878;4.742;2022-11-21T17:59:02;8.90;99.90
10046;DHT22;5063;50.878;4.742;2022-11-21T18:01:28;8.80;99.90
10046;DHT22;5063;50.878;4.742;2022-11-21T18:03:57;8.80;99.90
10046;DHT22;5063;50.878;4.742;2022-11-21T18:06:24;8.80;99.90
10046;DHT22;5063;50.878;4.742;2022-11-21T18:08:51;8.70;99.90
10046;DHT22;5063;50.878;4.742;2022-11-21T18:11:19;8.80;99.90
10046;DHT22;5063;50.878;4.742;2022-11-21T18:13:47;9.00;99.90
10046;DHT22;5063;50.878;4.742;2022-11-21T18:16:16;8.90;99.90